sensor_id;sensor_type;location;lat;lon;timestamp;temperature;humidity
4960;DHT22;2495;48.200;11.532;2022-12-29T00:00:49;8.00;59.60
4960;DHT22;2495;48.200;11.532;2022-12-29T00:05:57;8.00;59.10
4960;DHT22;2495;48.200;11.532;2022-12-29T00:10:58;8.00;60.00
4960;DHT22;2495;48.200;11.532;2022-12-29T00:16:00;7.90;59.10
4960;DHT22;2495;48.200;11.532;2022-12-29T00:21:01;8.20;59.50
4960;DHT22;2495;48.200;11.532;2022-12-29T00:26:21;8.30;58.80
4960;DHT22;2495;48.200;11.532;2022-12-29T00:31:44;8.60;59.00
4960;DHT22;2495;48.200;11.532;2022-12-29T00:37:02;8.60;58.00
4960;DHT22;2495;48.200;11.532;2022-12-29T00:42:04;8.40;57.60
4960;DHT22;2495;48.200;11.532;2022-12-29T00:47:23;8.50;58.80
4960;DHT22;2495;48.200;11.532;2022-12-29T00:52:25;8.80;58.40
4960;DHT22;2495;48.200;11.532;2022-12-29T00:57:26;8.70;57.90
4960;DHT22;2495;48.200;11.532;2022-12-29T01:02:28;8.50;57.30
4960;DHT22;2495;48.200;11.532;2022-12-29T01:07:29;8.30;57.10
4960;DHT22;2495;48.200;11.532;2022-12-29T01:12:32;8.20;57.30
4960;DHT22;2495;48.200;11.532;2022-12-29T01:17:44;8.20;59.10
4960;DHT22;2495;48.200;11.532;2022-12-29T01:22:46;8.20;58.10
4960;DHT22;2495;48.200;11.532;2022-12-29T01:27:50;8.20;57.30
4960;DHT22;2495;48.200;11.532;2022-12-29T01:32:50;8.20;57.30
4960;DHT22;2495;48.200;11.532;2022-12-29T01:37:55;8.10;57.00
4960;DHT22;2495;48.200;11.532;2022-12-29T01:42:54;8.00;57.20
4960;DHT22;2495;48.200;11.532;2022-12-29T01:48:00;8.00;57.40
4960;DHT22;2495;48.200;11.532;2022-12-29T01:53:08;8.00;58.00
4960;DHT22;2495;48.200;11.532;2022-12-29T01:58:07;8.20;59.10
4960;DHT22;2495;48.200;11.532;2022-12-29T02:03:09;8.30;57.50
4960;DHT22;2495;48.200;11.532;2022-12-29T02:08:11;8.20;57.60
4960;DHT22;2495;48.200;11.532;2022-12-29T02:13:16;8.10;57.10
4960;DHT22;2495;48.200;11.532;2022-12-29T02:41:03;8.00;58.30
4960;DHT22;2495;48.200;11.532;2022-12-29T02:46:26;8.00;58.20
4960;DHT22;2495;48.200;11.532;2022-12-29T02:51:36;8.00;58.00
4960;DHT22;2495;48.200;11.532;2022-12-29T02:56:37;8.00;57.80
4960;DHT22;2495;48.200;11.532;2022-12-29T03:07:46;8.00;56.70
4960;DHT22;2495;48.200;11.532;2022-12-29T03:13:07;8.10;56.20
4960;DHT22;2495;48.200;11.532;2022-12-29T03:18:50;8.30;56.10
4960;DHT22;2495;48.200;11.532;2022-12-29T03:24:01;8.40;55.70
4960;DHT22;2495;48.200;11.532;2022-12-29T03:29:03;8.50;54.40
4960;DHT22;2495;48.200;11.532;2022-12-29T03:34:04;8.60;54.20
4960;DHT22;2495;48.200;11.532;2022-12-29T03:39:11;9.10;54.60
4960;DHT22;2495;48.200;11.532;2022-12-29T03:44:16;9.20;53.50
4960;DHT22;2495;48.200;11.532;2022-12-29T03:49:21;9.10;53.20
4960;DHT22;2495;48.200;11.532;2022-12-29T03:54:27;9.00;53.30
4960;DHT22;2495;48.200;11.532;2022-12-29T04:00:06;9.00;54.10
4960;DHT22;2495;48.200;11.532;2022-12-29T04:05:08;9.00;53.70
4960;DHT22;2495;48.200;11.532;2022-12-29T04:10:10;9.40;54.40
4960;DHT22;2495;48.200;11.532;2022-12-29T04:15:15;9.70;53.00
4960;DHT22;2495;48.200;11.532;2022-12-29T04:20:20;9.60;52.50
4960;DHT22;2495;48.200;11.532;2022-12-29T04:25:37;9.50;52.60
4960;DHT22;2495;48.200;11.532;2022-12-29T04:30:49;9.40;52.60
4960;DHT22;2495;48.200;11.532;2022-12-29T04:35:51;9.30;52.60
4960;DHT22;2495;48.200;11.532;2022-12-29T04:40:58;9.30;52.70
4960;DHT22;2495;48.200;11.532;2022-12-29T04:46:02;9.20;52.70
4960;DHT22;2495;48.200;11.532;2022-12-29T04:51:19;9.30;52.60
4960;DHT22;2495;48.200;11.532;2022-12-29T04:56:24;9.20;52.90
4960;DHT22;2495;48.200;11.532;2022-12-29T05:01:29;9.30;52.60
4960;DHT22;2495;48.200;11.532;2022-12-29T05:06:31;9.60;52.60
4960;DHT22;2495;48.200;11.532;2022-12-29T05:11:36;10.00;51.90
4960;DHT22;2495;48.200;11.532;2022-12-29T05:16:37;9.90;50.50
4960;DHT22;2495;48.200;11.532;2022-12-29T05:21:39;9.80;51.00
4960;DHT22;2495;48.200;11.532;2022-12-29T05:26:53;9.70;51.40
4960;DHT22;2495;48.200;11.532;2022-12-29T05:32:13;9.50;52.40
4960;DHT22;2495;48.200;11.532;2022-12-29T05:37:15;9.50;52.00
4960;DHT22;2495;48.200;11.532;2022-12-29T05:42:19;9.50;52.10
4960;DHT22;2495;48.200;11.532;2022-12-29T05:47:20;9.50;52.10
4960;DHT22;2495;48.200;11.532;2022-12-29T05:52:22;9.50;51.90
4960;DHT22;2495;48.200;11.532;2022-12-29T05:57:23;9.80;52.30
4960;DHT22;2495;48.200;11.532;2022-12-29T06:02:27;10.20;51.10
4960;DHT22;2495;48.200;11.532;2022-12-29T06:07:29;10.10;50.90
4960;DHT22;2495;48.200;11.532;2022-12-29T06:12:30;10.20;50.50
4960;DHT22;2495;48.200;11.532;2022-12-29T06:17:33;10.80;50.90
4960;DHT22;2495;48.200;11.532;2022-12-29T06:22:34;10.80;50.10
4960;DHT22;2495;48.200;11.532;2022-12-29T06:27:35;11.00;49.50
4960;DHT22;2495;48.200;11.532;2022-12-29T06:32:36;10.70;48.90
4960;DHT22;2495;48.200;11.532;2022-12-29T06:37:38;10.50;49.20
4960;DHT22;2495;48.200;11.532;2022-12-29T06:42:39;10.20;49.60
4960;DHT22;2495;48.200;11.532;2022-12-29T06:47:40;10.10;50.00
4960;DHT22;2495;48.200;11.532;2022-12-29T06:52:42;10.10;51.60
4960;DHT22;2495;48.200;11.532;2022-12-29T06:57:43;10.10;51.30
4960;DHT22;2495;48.200;11.532;2022-12-29T07:02:45;10.40;50.30
4960;DHT22;2495;48.200;11.532;2022-12-29T07:07:46;10.30;50.10
4960;DHT22;2495;48.200;11.532;2022-12-29T07:12:47;10.40;51.00
4960;DHT22;2495;48.200;11.532;2022-12-29T07:17:48;10.60;50.80
4960;DHT22;2495;48.200;11.532;2022-12-29T07:22:53;10.50;49.90
4960;DHT22;2495;48.200;11.532;2022-12-29T07:27:54;10.30;49.80
4960;DHT22;2495;48.200;11.532;2022-12-29T07:32:56;10.50;50.20
4960;DHT22;2495;48.200;11.532;2022-12-29T07:37:57;10.50;50.00
4960;DHT22;2495;48.200;11.532;2022-12-29T07:42:58;10.40;49.80
4960;DHT22;2495;48.200;11.532;2022-12-29T07:47:59;10.70;50.60
4960;DHT22;2495;48.200;11.532;2022-12-29T07:53:01;10.70;49.40
4960;DHT22;2495;48.200;11.532;2022-12-29T07:58:02;10.80;49.20
4960;DHT22;2495;48.200;11.532;2022-12-29T08:03:03;12.40;48.60
4960;DHT22;2495;48.200;11.532;2022-12-29T08:08:04;15.30;44.80
4960;DHT22;2495;48.200;11.532;2022-12-29T08:13:05;15.80;43.00
4960;DHT22;2495;48.200;11.532;2022-12-29T08:18:07;16.10;42.00
4960;DHT22;2495;48.200;11.532;2022-12-29T08:23:08;15.70;40.40
4960;DHT22;2495;48.200;11.532;2022-12-29T08:28:09;15.80;40.20
4960;DHT22;2495;48.200;11.532;2022-12-29T08:33:10;15.70;39.70
4960;DHT22;2495;48.200;11.532;2022-12-29T08:38:11;15.70;39.50
4960;DHT22;2495;48.200;11.532;2022-12-29T08:43:13;14.80;41.10
4960;DHT22;2495;48.200;11.532;2022-12-29T08:48:14;14.70;42.20
4960;DHT22;2495;48.200;11.532;2022-12-29T08:53:15;14.40;42.10
4960;DHT22;2495;48.200;11.532;2022-12-29T08:58:16;14.10;43.00
4960;DHT22;2495;48.200;11.532;2022-12-29T09:03:17;13.70;43.10
4960;DHT22;2495;48.200;11.532;2022-12-29T09:08:19;13.70;43.90
4960;DHT22;2495;48.200;11.532;2022-12-29T09:13:20;15.40;42.30
4960;DHT22;2495;48.200;11.532;2022-12-29T09:18:21;16.60;40.40
4960;DHT22;2495;48.200;11.532;2022-12-29T09:23:23;15.00;41.10
4960;DHT22;2495;48.200;11.532;2022-12-29T09:28:25;14.80;42.60
4960;DHT22;2495;48.200;11.532;2022-12-29T09:33:26;14.80;42.30
4960;DHT22;2495;48.200;11.532;2022-12-29T09:38:28;14.90;41.30
4960;DHT22;2495;48.200;11.532;2022-12-29T09:49:07;15.30;40.50
4960;DHT22;2495;48.200;11.532;2022-12-29T09:59:27;14.50;43.30
4960;DHT22;2495;48.200;11.532;2022-12-29T10:04:27;14.40;42.70
4960;DHT22;2495;48.200;11.532;2022-12-29T10:20:32;14.30;43.00
4960;DHT22;2495;48.200;11.532;2022-12-29T10:25:34;14.10;41.80
4960;DHT22;2495;48.200;11.532;2022-12-29T10:30:33;14.00;41.20
4960;DHT22;2495;48.200;11.532;2022-12-29T10:35:36;14.10;41.50
4960;DHT22;2495;48.200;11.532;2022-12-29T10:40:46;14.50;42.30
4960;DHT22;2495;48.200;11.532;2022-12-29T10:45:46;15.10;41.60
4960;DHT22;2495;48.200;11.532;2022-12-29T10:50:48;15.20;39.90
4960;DHT22;2495;48.200;11.532;2022-12-29T10:55:48;15.40;40.40
4960;DHT22;2495;48.200;11.532;2022-12-29T11:00:52;15.50;39.30
4960;DHT22;2495;48.200;11.532;2022-12-29T11:06:18;15.80;39.80
4960;DHT22;2495;48.200;11.532;2022-12-29T11:11:27;15.90;39.80
4960;DHT22;2495;48.200;11.532;2022-12-29T11:16:35;15.70;38.90
4960;DHT22;2495;48.200;11.532;2022-12-29T11:21:38;16.30;37.60
4960;DHT22;2495;48.200;11.532;2022-12-29T11:26:43;17.00;36.60
4960;DHT22;2495;48.200;11.532;2022-12-29T11:31:43;17.70;36.50
4960;DHT22;2495;48.200;11.532;2022-12-29T11:36:47;18.50;36.60
4960;DHT22;2495;48.200;11.532;2022-12-29T11:41:51;19.10;35.10
4960;DHT22;2495;48.200;11.532;2022-12-29T11:46:49;19.00;36.30
4960;DHT22;2495;48.200;11.532;2022-12-29T11:51:51;19.10;35.50
4960;DHT22;2495;48.200;11.532;2022-12-29T11:56:52;22.00;34.70
4960;DHT22;2495;48.200;11.532;2022-12-29T12:01:54;21.90;34.40
4960;DHT22;2495;48.200;11.532;2022-12-29T12:07:00;22.50;31.30
4960;DHT22;2495;48.200;11.532;2022-12-29T12:11:59;23.60;31.80
4960;DHT22;2495;48.200;11.532;2022-12-29T12:17:09;23.60;30.10
4960;DHT22;2495;48.200;11.532;2022-12-29T12:22:16;25.00;30.00
4960;DHT22;2495;48.200;11.532;2022-12-29T12:27:28;24.30;29.40
4960;DHT22;2495;48.200;11.532;2022-12-29T12:32:52;21.20;31.90
4960;DHT22;2495;48.200;11.532;2022-12-29T12:38:22;21.20;31.90
4960;DHT22;2495;48.200;11.532;2022-12-29T12:43:39;20.70;33.00
4960;DHT22;2495;48.200;11.532;2022-12-29T12:54:11;19.60;34.50
4960;DHT22;2495;48.200;11.532;2022-12-29T13:25:29;17.40;40.80
4960;DHT22;2495;48.200;11.532;2022-12-29T13:30:38;17.40;40.50
4960;DHT22;2495;48.200;11.532;2022-12-29T13:40:56;17.00;41.60
4960;DHT22;2495;48.200;11.532;2022-12-29T13:46:04;16.90;41.30
4960;DHT22;2495;48.200;11.532;2022-12-29T13:51:03;16.70;42.10
4960;DHT22;2495;48.200;11.532;2022-12-29T13:56:10;16.70;43.00
4960;DHT22;2495;48.200;11.532;2022-12-29T14:06:35;16.50;44.00
4960;DHT22;2495;48.200;11.532;2022-12-29T14:11:37;16.20;45.30
4960;DHT22;2495;48.200;11.532;2022-12-29T14:16:37;16.10;45.90
4960;DHT22;2495;48.200;11.532;2022-12-29T14:21:38;15.90;46.20
4960;DHT22;2495;48.200;11.532;2022-12-29T14:26:40;15.70;47.80
4960;DHT22;2495;48.200;11.532;2022-12-29T14:31:42;15.50;48.50
4960;DHT22;2495;48.200;11.532;2022-12-29T14:36:54;15.50;48.20
4960;DHT22;2495;48.200;11.532;2022-12-29T14:42:00;15.40;48.80
4960;DHT22;2495;48.200;11.532;2022-12-29T14:47:11;15.40;48.90
4960;DHT22;2495;48.200;11.532;2022-12-29T14:52:17;15.30;48.80
4960;DHT22;2495;48.200;11.532;2022-12-29T14:57:22;15.20;49.30
4960;DHT22;2495;48.200;11.532;2022-12-29T15:02:23;15.20;49.30
4960;DHT22;2495;48.200;11.532;2022-12-29T15:07:23;15.10;49.20
4960;DHT22;2495;48.200;11.532;2022-12-29T15:12:48;15.30;49.60
4960;DHT22;2495;48.200;11.532;2022-12-29T15:17:47;15.40;49.50
4960;DHT22;2495;48.200;11.532;2022-12-29T15:22:50;15.30;49.40
4960;DHT22;2495;48.200;11.532;2022-12-29T15:27:57;15.30;50.00
4960;DHT22;2495;48.200;11.532;2022-12-29T15:32:57;15.40;50.40
4960;DHT22;2495;48.200;11.532;2022-12-29T15:37:58;15.40;49.60
4960;DHT22;2495;48.200;11.532;2022-12-29T15:48:32;15.00;50.50
4960;DHT22;2495;48.200;11.532;2022-12-29T15:53:33;15.00;49.70
4960;DHT22;2495;48.200;11.532;2022-12-29T15:58:45;15.10;49.20
4960;DHT22;2495;48.200;11.532;2022-12-29T16:03:45;15.00;48.80
4960;DHT22;2495;48.200;11.532;2022-12-29T16:08:46;14.70;48.20
4960;DHT22;2495;48.200;11.532;2022-12-29T16:13:47;14.40;48.30
4960;DHT22;2495;48.200;11.532;2022-12-29T16:18:49;14.20;48.80
4960;DHT22;2495;48.200;11.532;2022-12-29T16:23:51;14.10;49.10
4960;DHT22;2495;48.200;11.532;2022-12-29T16:28:56;14.30;49.90
4960;DHT22;2495;48.200;11.532;2022-12-29T16:33:56;14.20;49.80
4960;DHT22;2495;48.200;11.532;2022-12-29T16:39:19;14.40;49.20
4960;DHT22;2495;48.200;11.532;2022-12-29T16:44:23;14.40;48.80
4960;DHT22;2495;48.200;11.532;2022-12-29T16:49:23;14.30;49.70
4960;DHT22;2495;48.200;11.532;2022-12-29T16:54:34;14.30;49.60
4960;DHT22;2495;48.200;11.532;2022-12-29T16:59:37;14.20;49.20
4960;DHT22;2495;48.200;11.532;2022-12-29T17:04:36;14.20;49.40
4960;DHT22;2495;48.200;11.532;2022-12-29T17:09:38;14.10;48.70
4960;DHT22;2495;48.200;11.532;2022-12-29T17:14:58;14.00;48.90
4960;DHT22;2495;48.200;11.532;2022-12-29T17:20:08;13.70;50.10
4960;DHT22;2495;48.200;11.532;2022-12-29T17:25:08;13.50;50.80
4960;DHT22;2495;48.200;11.532;2022-12-29T17:30:15;13.40;50.70
4960;DHT22;2495;48.200;11.532;2022-12-29T17:35:16;13.30;52.10
4960;DHT22;2495;48.200;11.532;2022-12-29T17:40:17;13.20;51.60
4960;DHT22;2495;48.200;11.532;2022-12-29T17:45:30;13.30;52.60
4960;DHT22;2495;48.200;11.532;2022-12-29T17:50:31;13.70;53.10
4960;DHT22;2495;48.200;11.532;2022-12-29T17:55:33;13.90;52.60
4960;DHT22;2495;48.200;11.532;2022-12-29T18:00:34;14.00;52.60
4960;DHT22;2495;48.200;11.532;2022-12-29T18:05:36;13.90;52.40
4960;DHT22;2495;48.200;11.532;2022-12-29T18:10:38;13.90;54.30
4960;DHT22;2495;48.200;11.532;2022-12-29T18:15:39;13.90;53.80
4960;DHT22;2495;48.200;11.532;2022-12-29T18:20:41;13.90;53.90
4960;DHT22;2495;48.200;11.532;2022-12-29T18:25:43;14.00;54.10
4960;DHT22;2495;48.200;11.532;2022-12-29T18:30:43;14.00;54.40
4960;DHT22;2495;48.200;11.532;2022-12-29T18:35:51;14.00;54.20
4960;DHT22;2495;48.200;11.532;2022-12-29T18:40:55;13.90;53.90
4960;DHT22;2495;48.200;11.532;2022-12-29T18:45:59;13.60;53.40
4960;DHT22;2495;48.200;11.532;2022-12-29T18:51:00;13.40;53.60
4960;DHT22;2495;48.200;11.532;2022-12-29T18:56:01;13.20;54.00
4960;DHT22;2495;48.200;11.532;2022-12-29T19:01:03;13.10;54.40
4960;DHT22;2495;48.200;11.532;2022-12-29T19:06:04;13.10;54.70
4960;DHT22;2495;48.200;11.532;2022-12-29T19:11:06;13.00;54.80
4960;DHT22;2495;48.200;11.532;2022-12-29T19:16:08;13.20;55.60
4960;DHT22;2495;48.200;11.532;2022-12-29T19:21:08;13.30;55.00
4960;DHT22;2495;48.200;11.532;2022-12-29T19:26:16;13.20;54.50
4960;DHT22;2495;48.200;11.532;2022-12-29T19:31:11;13.30;55.30
4960;DHT22;2495;48.200;11.532;2022-12-29T19:36:15;13.50;55.00
4960;DHT22;2495;48.200;11.532;2022-12-29T19:41:16;13.70;54.90
4960;DHT22;2495;48.200;11.532;2022-12-29T19:46:18;13.60;54.10
4960;DHT22;2495;48.200;11.532;2022-12-29T19:51:19;13.40;53.90
4960;DHT22;2495;48.200;11.532;2022-12-29T19:56:20;13.40;54.40
4960;DHT22;2495;48.200;11.532;2022-12-29T20:01:22;13.40;53.80
4960;DHT22;2495;48.200;11.532;2022-12-29T20:06:23;13.20;53.70
4960;DHT22;2495;48.200;11.532;2022-12-29T20:11:24;13.10;53.90
4960;DHT22;2495;48.200;11.532;2022-12-29T20:16:29;13.20;55.20
4960;DHT22;2495;48.200;11.532;2022-12-29T20:21:33;13.20;55.50
4960;DHT22;2495;48.200;11.532;2022-12-29T20:26:34;13.30;57.00
4960;DHT22;2495;48.200;11.532;2022-12-29T20:31:36;13.50;57.50
4960;DHT22;2495;48.200;11.532;2022-12-29T20:36:38;13.60;58.50
4960;DHT22;2495;48.200;11.532;2022-12-29T20:41:38;13.50;58.60
4960;DHT22;2495;48.200;11.532;2022-12-29T20:46:39;13.30;59.80
4960;DHT22;2495;48.200;11.532;2022-12-29T20:51:41;13.20;60.90
4960;DHT22;2495;48.200;11.532;2022-12-29T20:56:43;13.00;61.10
4960;DHT22;2495;48.200;11.532;2022-12-29T21:01:44;12.90;63.30
4960;DHT22;2495;48.200;11.532;2022-12-29T21:06:45;12.80;63.80
4960;DHT22;2495;48.200;11.532;2022-12-29T21:11:47;12.70;63.60
4960;DHT22;2495;48.200;11.532;2022-12-29T21:16:49;12.60;64.20
4960;DHT22;2495;48.200;11.532;2022-12-29T21:21:51;12.50;64.50
4960;DHT22;2495;48.200;11.532;2022-12-29T21:26:52;12.50;64.80
4960;DHT22;2495;48.200;11.532;2022-12-29T21:31:53;12.70;65.30
4960;DHT22;2495;48.200;11.532;2022-12-29T21:36:54;12.80;64.80
4960;DHT22;2495;48.200;11.532;2022-12-29T21:41:56;12.90;65.30
4960;DHT22;2495;48.200;11.532;2022-12-29T21:47:00;12.90;64.90
4960;DHT22;2495;48.200;11.532;2022-12-29T21:52:01;12.70;65.00
4960;DHT22;2495;48.200;11.532;2022-12-29T21:57:02;12.50;66.40
4960;DHT22;2495;48.200;11.532;2022-12-29T22:02:09;12.50;66.30
4960;DHT22;2495;48.200;11.532;2022-12-29T22:07:23;12.40;66.20
4960;DHT22;2495;48.200;11.532;2022-12-29T22:12:42;12.40;66.80
4960;DHT22;2495;48.200;11.532;2022-12-29T22:17:59;12.30;67.70
4960;DHT22;2495;48.200;11.532;2022-12-29T22:23:01;12.30;67.60
4960;DHT22;2495;48.200;11.532;2022-12-29T22:28:01;12.30;67.30
4960;DHT22;2495;48.200;11.532;2022-12-29T22:33:02;12.30;67.40
4960;DHT22;2495;48.200;11.532;2022-12-29T22:38:03;12.20;67.20
4960;DHT22;2495;48.200;11.532;2022-12-29T22:43:05;12.20;67.40
4960;DHT22;2495;48.200;11.532;2022-12-29T22:48:06;12.20;68.00
4960;DHT22;2495;48.200;11.532;2022-12-29T22:53:07;12.10;68.90
4960;DHT22;2495;48.200;11.532;2022-12-29T22:58:08;12.30;70.20
4960;DHT22;2495;48.200;11.532;2022-12-29T23:03:10;12.70;70.00
4960;DHT22;2495;48.200;11.532;2022-12-29T23:08:11;12.90;69.80
4960;DHT22;2495;48.200;11.532;2022-12-29T23:13:13;12.60;69.50
4960;DHT22;2495;48.200;11.532;2022-12-29T23:18:15;12.60;69.20
4960;DHT22;2495;48.200;11.532;2022-12-29T23:23:16;12.50;70.00
4960;DHT22;2495;48.200;11.532;2022-12-29T23:28:19;12.50;71.30
4960;DHT22;2495;48.200;11.532;2022-12-29T23:33:20;12.50;71.20
4960;DHT22;2495;48.200;11.532;2022-12-29T23:38:22;12.30;71.70
4960;DHT22;2495;48.200;11.532;2022-12-29T23:43:23;12.40;72.70
4960;DHT22;2495;48.200;11.532;2022-12-29T23:48:24;12.60;72.50
4960;DHT22;2495;48.200;11.532;2022-12-29T23:53:25;12.60;71.70
4960;DHT22;2495;48.200;11.532;2022-12-29T23:58:29;12.70;73.00
